General Aviation Weather

Text Reports

Enter one or more of the following location identifiers separated by a space:

Zip Code, Four-Character ICAO or Three-Character IATA airport codes.

METAR - Aviation Routine Weather Report
KHWD - Hayward, California
Updated at 5:54 PM GMT on May 03, 2015 (10:54 AM PDT):
METAR KHWD 031754Z 29008KT 10SM FEW018 16/09 A2991 RMK AO2 SLP136 T01560094 10156 20122 51010 $
TAF - Terminal Area Forecast
KHWD - Hayward, California
Updated at 5:54 PM GMT on May 03, 2015 (10:54 AM PDT):
No TAF is currently available for this location.
Decoded:
No decoded TAF is available.
PIREP - Pilot Weather Report
KHWD - Hayward, California
Updated at 5:54 PM GMT on May 03, 2015 (10:54 AM PDT):
No PIREP is currently available for this location.
AIRMET - Airmens Meteorological Information
KHWD - Hayward, California
Updated at 5:54 PM GMT on May 03, 2015 (10:54 AM PDT):
No AIRMET is currently available for this location.
SIGMET - Significant Meteorological Information
KHWD - Hayward, California
Updated at 5:54 PM GMT on May 03, 2015 (10:54 AM PDT):
No SIGMET is currently available for this location.
NOTAM - Notice to Airmen
KHWD - Hayward, California
Updated at 5:54 PM GMT on May 03, 2015 (10:54 AM PDT):
No NOTAM is currently available for this location.
Forecast Area
KHWD - Hayward, California
Updated at 5:54 PM GMT on May 03, 2015 (10:54 AM PDT):
No NOTAM is currently available for this location.
Aviation Weather Maps